Etusivu
METAR-TAF:

METAR-TAF

Lentoasemat :

Chesterfield Inletin lentoasema

Chesterfield Inlet, Nunavut, Kanada

Leveyspiiri: 63-20N, Pituuspiiri: 090-43W, korkeus merenpinnasta: 11 m

Tämänhetkinen sää

Tämä raportti tehtiin 38 minuuttia sitten, kello 17.00 UTC
Tuuli 12 kn koillisesta
Lämpötila -10°C
Kosteus 67%
Ilmanpaine 1019 hPa
Näkyvyys: 24.1 km
selkeää

METAR: CYCS 081700Z 05012KT 15SM SKC M10/M15 A3009 RMK SLP191

Aika: 12:38 (17:38 UTC)


TAF: puuttuu

Säähavainnot ja -ennusteet yli 4000 lentoasemalta (METAR- ja TAF-raportit).

Käytössä olevat sääasemat on merkitty karttaan keltaisilla ja punaisilla pisteillä.

Aseta hiiri pisteen päälle nähdäksesi sääaseman nimen.

Klikkaa sitten nähdäksesi säähavainnot ja -ennusteet.

Kartan vaihtaminen: klikkaa mustalla rastilla varustettuja vihreitä pisteitä, niin voit zoomata sisään; viivalla varustettua vihreää pistettä, niin voit zoomata ulos tai vihreitä nuolia, niin pääset viereisille kartoille.


METAR-TAF: